This is the latest recevied weather packets stored in our database for station/object EPGD. If no packets are shown the sender has not sent any weather packets the latest 10 day(s).
| Time | Temp. | Humidity | Pressure | Rain* | Wind** | Luminosity | Snow |
|---|---|---|---|---|---|---|---|
| 1777610103 | 3.89° C | 80% | 1027 hPa | - | - | - | - |
| 1777608304 | 2.78° C | 86% | 1026 hPa | - | - | - | - |
| 1777606504 | 1.67° C | 86% | 1027 hPa | - | - | - | - |
| 1777604704 | 2.78° C | 80% | 1027 hPa | - | - | - | - |
| 1777602903 | 1.67° C | 86% | 1027 hPa | - | - | - | - |
| 1777601104 | 2.78° C | 80% | 1027 hPa | - | - | - | - |
| 1777583104 | 7.78° C | 52% | 1026 hPa | - | - | - | - |
| 1777581304 | 7.78° C | 52% | 1026 hPa | - | - | - | - |
| 1777579504 | 8.89° C | 49% | 1027 hPa | - | - | - | - |
| 1777577704 | 10° C | 49% | 1027 hPa | - | - | - | - |
| 1777572304 | 10.56° C | 46% | 1026 hPa | - | - | - | - |
| 1777570504 | 12.78° C | 37% | 1026 hPa | - | - | - | - |
| 1777568704 | 13.89° C | 33% | 1026 hPa | - | - | - | - |
| 1777566904 | 15° C | 28% | 1026 hPa | - | - | - | - |
| 1777563304 | 13.89° C | 24% | 1027 hPa | - | - | - | - |
| 1777561504 | 15° C | 21% | 1027 hPa | - | - | - | - |
| 1777559704 | 13.89° C | 30% | 1027 hPa | - | - | - | - |
| 1777554304 | 15° C | 44% | 1027 hPa | - | - | - | - |
| 1777552504 | 15° C | 38% | 1027 hPa | - | - | - | - |
| 1777545304 | 11.67° C | 43% | 1028 hPa | - | - | - | - |
| 1777543504 | 11.67° C | 43% | 1028 hPa | - | - | - | - |
| 1777541704 | 11.67° C | 43% | 1028 hPa | - | - | - | - |
| 1777539904 | 11.67° C | 40% | 1028 hPa | - | - | - | - |
| 1777538104 | 11.67° C | 37% | 1028 hPa | - | - | - | - |
| 1777536304 | 10.56° C | 37% | 1029 hPa | - | - | - | - |
* Rain since midnight (hover to see other rain measurements)
** Current wind speed in m/s (hover to see current wind gust speed)